createdAt,value
2019-01-19T00:01:00.124Z,47.55
2019-01-19T00:02:04.199Z,47.54
2019-01-19T00:03:06.212Z,47.54
2019-01-19T00:04:08.147Z,47.54
2019-01-19T00:05:10.539Z,47.52
2019-01-19T00:06:12.906Z,47.54
2019-01-19T00:07:16.035Z,47.54
2019-01-19T00:08:18.027Z,47.54
2019-01-19T00:09:20.046Z,47.54
2019-01-19T00:10:21.985Z,47.51
2019-01-19T00:11:23.914Z,47.50
2019-01-19T00:12:25.862Z,47.52
2019-01-19T00:13:27.855Z,47.51
2019-01-19T00:14:29.858Z,47.48
2019-01-19T00:15:31.793Z,47.53
2019-01-19T00:16:33.749Z,47.50
2019-01-19T00:17:35.703Z,47.49
2019-01-19T00:18:37.694Z,47.47
2019-01-19T00:19:39.639Z,47.54
2019-01-19T00:20:41.592Z,47.44
2019-01-19T00:21:43.617Z,47.50
2019-01-19T00:22:47.189Z,47.44
2019-01-19T00:23:49.163Z,47.52
2019-01-19T00:24:51.098Z,47.44
2019-01-19T00:25:53.038Z,47.42
2019-01-19T00:26:54.978Z,47.44
2019-01-19T00:27:56.913Z,47.47
2019-01-19T00:28:58.871Z,47.47
2019-01-19T00:30:01.065Z,47.46
2019-01-19T00:31:03.008Z,47.45
2019-01-19T00:32:04.956Z,47.38
2019-01-19T00:33:06.888Z,47.45
2019-01-19T00:34:09.144Z,47.44
2019-01-19T00:35:17.618Z,47.45
2019-01-19T00:36:14.747Z,47.42
2019-01-19T00:37:16.691Z,47.44
2019-01-19T00:38:18.631Z,47.44
2019-01-19T00:39:21.051Z,47.43
2019-01-19T00:40:23.069Z,47.44
2019-01-19T00:41:25.036Z,47.34
2019-01-19T00:42:26.977Z,47.38
2019-01-19T00:43:28.922Z,47.40
2019-01-19T00:44:32.181Z,47.39
2019-01-19T00:45:34.296Z,47.33
2019-01-19T00:46:36.249Z,47.31
2019-01-19T00:47:38.200Z,47.32
2019-01-19T00:48:40.208Z,47.33
2019-01-19T00:49:42.190Z,47.33
2019-01-19T00:50:44.128Z,47.33
2019-01-19T00:51:46.066Z,47.37
2019-01-19T00:52:48.004Z,47.39
2019-01-19T00:53:49.942Z,47.32
2019-01-19T00:54:51.914Z,47.38
2019-01-19T00:55:53.848Z,47.35
2019-01-19T00:56:55.798Z,47.34
2019-01-19T00:58:01.272Z,47.37
2019-01-19T00:59:03.207Z,47.38
2019-01-19T01:00:05.168Z,47.38
2019-01-19T01:01:07.090Z,47.38
2019-01-19T01:02:09.039Z,47.35
2019-01-19T01:03:10.975Z,47.35
2019-01-19T01:04:12.904Z,47.35
2019-01-19T01:05:14.880Z,47.36
2019-01-19T01:06:16.845Z,47.38
2019-01-19T01:07:18.799Z,47.37
2019-01-19T01:08:20.836Z,47.37
2019-01-19T01:09:22.793Z,47.31
2019-01-19T01:10:24.766Z,47.38
2019-01-19T01:11:26.724Z,47.38
2019-01-19T01:12:28.744Z,47.35
2019-01-19T01:13:30.710Z,47.34
2019-01-19T01:14:32.674Z,47.37
2019-01-19T01:15:37.655Z,47.34
2019-01-19T01:16:39.614Z,47.33
2019-01-19T01:17:42.027Z,47.37
2019-01-19T01:18:43.976Z,47.34
2019-01-19T01:19:45.916Z,47.39
2019-01-19T01:20:47.959Z,47.36
2019-01-19T01:21:49.965Z,47.37
2019-01-19T01:22:51.914Z,47.37
2019-01-19T01:23:53.859Z,47.37
2019-01-19T01:24:56.561Z,47.37
2019-01-19T01:25:58.543Z,47.39
2019-01-19T01:27:00.488Z,47.36
2019-01-19T01:28:02.445Z,47.38
2019-01-19T01:29:04.381Z,47.37
2019-01-19T01:30:06.320Z,47.33
2019-01-19T01:31:08.295Z,47.34
2019-01-19T01:32:10.231Z,47.34
2019-01-19T01:33:12.171Z,47.35
2019-01-19T01:34:14.127Z,47.32
2019-01-19T01:35:16.066Z,47.37
2019-01-19T01:36:18.043Z,47.34
2019-01-19T01:37:19.981Z,47.34
2019-01-19T01:38:21.925Z,47.36
2019-01-19T01:39:23.873Z,47.35
2019-01-19T01:40:25.885Z,47.37
2019-01-19T01:41:27.859Z,47.39
2019-01-19T01:42:29.816Z,47.34
2019-01-19T01:43:31.757Z,47.32
2019-01-19T01:44:33.709Z,47.35
2019-01-19T01:45:35.651Z,47.33
2019-01-19T01:46:37.630Z,47.32
2019-01-19T01:47:39.578Z,47.36
2019-01-19T01:48:41.525Z,47.33
2019-01-19T01:49:43.462Z,47.29
2019-01-19T01:50:45.427Z,47.35
2019-01-19T01:51:47.409Z,47.31
2019-01-19T01:52:49.375Z,47.36
2019-01-19T01:53:51.323Z,47.26
2019-01-19T01:54:53.252Z,47.34
2019-01-19T01:55:55.190Z,47.36
2019-01-19T01:56:57.165Z,47.35
2019-01-19T01:57:59.099Z,47.28
2019-01-19T01:59:03.450Z,47.34
2019-01-19T02:00:05.660Z,47.33
2019-01-19T02:01:07.605Z,47.34
2019-01-19T02:02:09.580Z,47.34
2019-01-19T02:03:11.531Z,47.33
2019-01-19T02:04:15.559Z,47.34
2019-01-19T02:05:17.509Z,47.31
2019-01-19T02:06:19.623Z,47.28
2019-01-19T02:07:21.638Z,47.30
2019-01-19T02:08:23.575Z,47.32
2019-01-19T02:09:25.517Z,47.33
2019-01-19T02:10:27.464Z,47.35
2019-01-19T02:11:29.402Z,47.27
2019-01-19T02:12:31.571Z,47.32
2019-01-19T02:13:33.568Z,47.30
2019-01-19T02:14:35.497Z,47.33
2019-01-19T02:15:37.450Z,47.27
2019-01-19T02:16:39.416Z,47.33
2019-01-19T02:17:41.454Z,47.27
2019-01-19T02:18:43.412Z,47.28
2019-01-19T02:19:45.365Z,47.29
2019-01-19T02:20:47.349Z,47.28
2019-01-19T02:21:49.306Z,47.30
2019-01-19T02:22:51.356Z,47.26
2019-01-19T02:23:55.328Z,47.28
2019-01-19T02:24:57.044Z,47.32
2019-01-19T02:25:58.995Z,47.30
2019-01-19T02:27:00.946Z,47.28
2019-01-19T02:28:02.911Z,47.31
2019-01-19T02:29:04.856Z,47.25
2019-01-19T02:30:06.811Z,47.28
2019-01-19T02:31:08.824Z,47.33
2019-01-19T02:32:10.775Z,47.30
2019-01-19T02:33:12.757Z,47.25
2019-01-19T02:34:14.697Z,47.27
2019-01-19T02:35:16.644Z,47.28
2019-01-19T02:36:18.581Z,47.28
2019-01-19T02:37:20.598Z,47.28
2019-01-19T02:38:22.573Z,47.30
2019-01-19T02:39:24.515Z,47.27
2019-01-19T02:40:26.458Z,47.26
2019-01-19T02:41:28.394Z,47.25
2019-01-19T02:42:32.664Z,47.27
2019-01-19T02:43:34.625Z,47.29
2019-01-19T02:44:37.056Z,47.28
2019-01-19T02:45:39.085Z,47.26
2019-01-19T02:46:41.026Z,47.26
2019-01-19T02:47:42.951Z,47.28
2019-01-19T02:48:44.956Z,47.30
2019-01-19T02:49:48.448Z,47.25
2019-01-19T02:50:50.549Z,47.25
2019-01-19T02:51:52.506Z,47.25
2019-01-19T02:52:54.446Z,47.21
2019-01-19T02:53:56.414Z,47.26
2019-01-19T02:54:58.359Z,47.28
2019-01-19T02:56:00.300Z,47.28
2019-01-19T02:57:03.590Z,47.24
2019-01-19T02:58:05.562Z,47.28
2019-01-19T02:59:07.671Z,47.26
2019-01-19T03:00:09.614Z,47.23
2019-01-19T03:01:11.548Z,47.24
2019-01-19T03:02:13.520Z,47.27
2019-01-19T03:03:15.536Z,47.24
2019-01-19T03:04:17.590Z,47.24
2019-01-19T03:05:19.539Z,47.27
2019-01-19T03:06:21.486Z,47.25
2019-01-19T03:07:23.488Z,47.26
2019-01-19T03:08:25.431Z,47.27
2019-01-19T03:09:27.501Z,47.17
2019-01-19T03:10:29.436Z,47.22
2019-01-19T03:11:31.376Z,47.24
2019-01-19T03:12:33.396Z,47.22
2019-01-19T03:13:35.338Z,47.21
2019-01-19T03:14:38.950Z,47.16
2019-01-19T03:15:40.934Z,47.23
2019-01-19T03:16:42.880Z,47.22
2019-01-19T03:17:44.824Z,47.17
2019-01-19T03:18:46.767Z,47.21
2019-01-19T03:19:48.730Z,47.16
2019-01-19T03:20:52.517Z,47.18
2019-01-19T03:21:54.488Z,47.16
2019-01-19T03:22:56.430Z,47.20
2019-01-19T03:23:58.385Z,47.13
2019-01-19T03:25:00.419Z,47.22
2019-01-19T03:26:02.879Z,47.20
2019-01-19T03:27:04.899Z,47.15
2019-01-19T03:28:06.853Z,47.18
2019-01-19T03:29:09.399Z,47.17
2019-01-19T03:30:11.388Z,47.16
2019-01-19T03:31:13.394Z,47.13
2019-01-19T03:32:15.348Z,47.17
2019-01-19T03:33:17.367Z,47.15
2019-01-19T03:34:19.384Z,47.16
2019-01-19T03:35:22.575Z,47.17
2019-01-19T03:36:24.555Z,47.15
2019-01-19T03:37:26.524Z,47.14
2019-01-19T03:38:28.479Z,47.17
2019-01-19T03:39:30.617Z,47.14
2019-01-19T03:40:32.568Z,47.10
2019-01-19T03:41:34.685Z,47.13
2019-01-19T03:42:36.645Z,47.12
2019-01-19T03:43:38.599Z,47.13
2019-01-19T03:44:40.603Z,47.15
2019-01-19T03:45:42.579Z,47.08
2019-01-19T03:46:44.589Z,47.14
2019-01-19T03:47:46.518Z,47.14
2019-01-19T03:48:48.477Z,47.13
2019-01-19T03:49:50.475Z,47.10
2019-01-19T03:50:52.457Z,47.14
2019-01-19T03:51:54.423Z,47.15
2019-01-19T03:52:56.351Z,47.09
2019-01-19T03:53:58.377Z,47.08
2019-01-19T03:55:00.366Z,47.14
2019-01-19T03:56:06.176Z,47.08
2019-01-19T03:57:08.120Z,47.05
2019-01-19T03:58:10.061Z,47.13
2019-01-19T03:59:12.012Z,47.14
2019-01-19T04:00:13.958Z,47.07
2019-01-19T04:01:15.915Z,47.08
2019-01-19T04:02:17.881Z,47.13
2019-01-19T04:03:19.904Z,47.05
2019-01-19T04:04:21.924Z,47.10
2019-01-19T04:05:23.947Z,47.11
2019-01-19T04:06:25.930Z,47.09
2019-01-19T04:07:27.880Z,47.04
2019-01-19T04:08:29.835Z,47.01
2019-01-19T04:09:31.855Z,47.08
2019-01-19T04:10:33.863Z,47.07
2019-01-19T04:11:35.844Z,47.09
2019-01-19T04:12:37.778Z,47.07
2019-01-19T04:13:39.719Z,47.08
2019-01-19T04:14:41.661Z,47.04
2019-01-19T04:15:43.610Z,47.07
2019-01-19T04:16:45.890Z,47.02
2019-01-19T04:17:47.907Z,47.10
2019-01-19T04:18:49.844Z,47.05
2019-01-19T04:19:51.799Z,47.08
2019-01-19T04:20:53.748Z,47.07
2019-01-19T04:21:55.781Z,47.08
2019-01-19T04:22:57.717Z,47.02
2019-01-19T04:23:59.666Z,47.04
2019-01-19T04:25:03.891Z,47.08
2019-01-19T04:26:05.830Z,47.06
2019-01-19T04:27:07.805Z,47.05
2019-01-19T04:28:10.185Z,46.98
2019-01-19T04:29:12.122Z,47.02
2019-01-19T04:30:14.066Z,47.02
2019-01-19T04:31:16.013Z,47.06
2019-01-19T04:32:17.989Z,46.95
2019-01-19T04:33:19.962Z,47.03
2019-01-19T04:34:22.169Z,47.03
2019-01-19T04:35:24.119Z,46.99
2019-01-19T04:36:26.404Z,47.01
2019-01-19T04:37:28.381Z,47.00
2019-01-19T04:38:31.013Z,47.01
2019-01-19T04:39:32.965Z,47.04
2019-01-19T04:40:36.852Z,47.00
2019-01-19T04:41:38.790Z,47.00
2019-01-19T04:42:42.006Z,47.01
2019-01-19T04:43:43.969Z,47.01
2019-01-19T04:44:46.175Z,46.98
2019-01-19T04:45:48.123Z,46.97
2019-01-19T04:46:50.075Z,47.05
2019-01-19T04:47:52.063Z,47.03
2019-01-19T04:48:54.004Z,46.98
2019-01-19T04:49:57.031Z,47.00
2019-01-19T04:50:58.972Z,46.98
2019-01-19T04:52:00.909Z,46.99
2019-01-19T04:53:02.887Z,46.99
2019-01-19T04:54:04.965Z,47.04
2019-01-19T04:55:07.005Z,46.98
2019-01-19T04:56:10.962Z,46.95
2019-01-19T04:57:12.687Z,47.01
2019-01-19T04:58:14.658Z,46.97
2019-01-19T04:59:16.590Z,46.99
2019-01-19T05:00:18.525Z,47.00
2019-01-19T05:01:20.456Z,46.92
2019-01-19T05:02:22.388Z,47.01
2019-01-19T05:03:24.352Z,46.98
2019-01-19T05:04:26.290Z,46.98
2019-01-19T05:05:28.265Z,46.95
2019-01-19T05:06:30.765Z,46.98
2019-01-19T05:07:32.805Z,46.97
2019-01-19T05:08:34.775Z,46.96
2019-01-19T05:09:36.725Z,46.96
2019-01-19T05:10:38.683Z,46.99
2019-01-19T05:11:40.719Z,46.89
2019-01-19T05:12:42.655Z,46.94
2019-01-19T05:13:44.890Z,47.00
2019-01-19T05:14:46.824Z,46.97
2019-01-19T05:15:48.791Z,46.95
2019-01-19T05:16:50.884Z,46.92
2019-01-19T05:17:52.989Z,46.95
2019-01-19T05:18:56.230Z,46.95
2019-01-19T05:19:58.177Z,46.97
2019-01-19T05:21:00.204Z,46.92
2019-01-19T05:22:02.128Z,46.97
2019-01-19T05:23:04.079Z,46.97
2019-01-19T05:24:06.144Z,46.93
2019-01-19T05:25:08.102Z,46.95
2019-01-19T05:26:10.043Z,46.87
2019-01-19T05:27:11.990Z,46.94
2019-01-19T05:28:13.922Z,46.94
2019-01-19T05:29:15.892Z,46.92
2019-01-19T05:30:20.768Z,46.90
2019-01-19T05:31:26.030Z,46.92
2019-01-19T05:32:28.322Z,46.95
2019-01-19T05:33:30.271Z,46.92
2019-01-19T05:34:32.285Z,46.90
2019-01-19T05:35:34.246Z,46.88
2019-01-19T05:36:38.553Z,46.88
2019-01-19T05:37:39.853Z,46.88
2019-01-19T05:38:41.794Z,46.89
2019-01-19T05:39:43.765Z,46.84
2019-01-19T05:40:45.788Z,46.83
2019-01-19T05:41:47.780Z,46.87
2019-01-19T05:42:52.210Z,46.92
2019-01-19T05:43:54.156Z,46.82
2019-01-19T05:44:56.137Z,46.86
2019-01-19T05:45:58.106Z,46.88
2019-01-19T05:47:01.585Z,46.88
2019-01-19T05:48:03.852Z,46.86
2019-01-19T05:49:05.804Z,46.79
2019-01-19T05:50:10.188Z,46.86
2019-01-19T05:51:12.152Z,46.85
2019-01-19T05:52:14.146Z,46.86
2019-01-19T05:53:16.135Z,46.83
2019-01-19T05:54:18.135Z,46.85
2019-01-19T05:55:20.176Z,46.80
2019-01-19T05:56:23.924Z,46.81
2019-01-19T05:57:25.858Z,46.77
2019-01-19T05:58:27.792Z,46.80
2019-01-19T05:59:29.770Z,46.80
2019-01-19T06:00:33.968Z,46.75
2019-01-19T06:01:35.915Z,46.72
2019-01-19T06:02:37.947Z,46.74
2019-01-19T06:03:40.485Z,46.75
2019-01-19T06:04:42.493Z,46.68
2019-01-19T06:05:44.626Z,46.71
2019-01-19T06:06:47.307Z,46.66
2019-01-19T06:07:49.372Z,46.57
2019-01-19T06:08:51.406Z,46.62
2019-01-19T06:09:53.363Z,46.59
2019-01-19T06:10:55.341Z,46.54
2019-01-19T06:11:57.271Z,46.63
2019-01-19T06:12:59.219Z,46.65
2019-01-19T06:14:01.251Z,46.68
2019-01-19T06:15:03.256Z,46.68
2019-01-19T06:16:05.283Z,46.66
2019-01-19T06:17:07.209Z,46.71
2019-01-19T06:18:09.144Z,46.65
2019-01-19T06:19:11.387Z,46.68
2019-01-19T06:20:13.323Z,46.64
2019-01-19T06:21:16.169Z,46.63
2019-01-19T06:22:18.410Z,46.62
2019-01-19T06:23:20.361Z,46.70
2019-01-19T06:24:22.318Z,46.65
2019-01-19T06:25:24.326Z,46.71
2019-01-19T06:26:26.290Z,46.70
2019-01-19T06:27:28.244Z,46.71
2019-01-19T06:28:30.304Z,46.71
2019-01-19T06:29:32.256Z,46.70
2019-01-19T06:30:34.208Z,46.67
2019-01-19T06:31:37.243Z,46.71
2019-01-19T06:32:39.183Z,46.71
2019-01-19T06:33:41.131Z,46.71
2019-01-19T06:34:43.077Z,46.72
2019-01-19T06:35:45.009Z,46.72
2019-01-19T06:36:54.588Z,46.71
2019-01-19T06:37:50.927Z,46.74
2019-01-19T06:38:52.913Z,46.76
2019-01-19T06:39:54.845Z,46.77
2019-01-19T06:40:56.788Z,46.78
2019-01-19T06:41:58.758Z,46.79
2019-01-19T06:43:00.691Z,46.80
2019-01-19T06:44:02.634Z,46.80
2019-01-19T06:45:04.587Z,46.81
2019-01-19T06:46:07.556Z,46.82
2019-01-19T06:47:09.821Z,46.81
2019-01-19T06:48:11.763Z,46.83
2019-01-19T06:49:13.700Z,46.83
2019-01-19T06:50:15.707Z,46.85
2019-01-19T06:51:17.664Z,46.84
2019-01-19T06:52:19.713Z,46.85
2019-01-19T06:53:21.705Z,46.85
2019-01-19T06:54:23.849Z,46.87
2019-01-19T06:55:25.796Z,46.87
2019-01-19T06:56:27.756Z,46.86
2019-01-19T06:57:29.813Z,46.86
2019-01-19T06:58:31.769Z,46.87
2019-01-19T06:59:33.793Z,46.84
2019-01-19T07:00:35.739Z,46.83
2019-01-19T07:01:37.690Z,46.80
2019-01-19T07:02:39.937Z,46.76
2019-01-19T07:03:41.897Z,46.80
2019-01-19T07:04:43.917Z,46.77
2019-01-19T07:05:46.006Z,46.75
2019-01-19T07:06:47.963Z,46.67
2019-01-19T07:07:49.964Z,46.53
2019-01-19T07:08:51.924Z,46.42
2019-01-19T07:09:53.921Z,46.39
2019-01-19T07:10:55.886Z,46.26
2019-01-19T07:11:57.997Z,46.36
2019-01-19T07:12:59.961Z,46.26
2019-01-19T07:14:01.919Z,46.23
2019-01-19T07:15:03.853Z,46.22
2019-01-19T07:16:05.785Z,46.16
2019-01-19T07:17:07.744Z,46.15
2019-01-19T07:18:09.761Z,46.16
2019-01-19T07:19:11.745Z,46.12
2019-01-19T07:20:13.933Z,46.13
2019-01-19T07:21:15.959Z,46.09
2019-01-19T07:22:18.759Z,46.07
2019-01-19T07:23:21.054Z,46.09
2019-01-19T07:24:24.293Z,46.07
2019-01-19T07:25:26.305Z,46.08
2019-01-19T07:26:28.354Z,46.10
2019-01-19T07:27:30.279Z,46.06
2019-01-19T07:28:32.246Z,46.09
2019-01-19T07:29:34.182Z,46.11
2019-01-19T07:30:36.136Z,46.16
2019-01-19T07:31:38.071Z,46.15
2019-01-19T07:32:40.020Z,46.16
2019-01-19T07:33:42.051Z,46.17
2019-01-19T07:34:46.129Z,46.15
2019-01-19T07:35:48.077Z,46.17
2019-01-19T07:36:50.020Z,46.24
2019-01-19T07:37:51.956Z,46.19
2019-01-19T07:38:53.939Z,46.24
2019-01-19T07:39:55.899Z,46.27
2019-01-19T07:40:58.021Z,46.25
2019-01-19T07:42:01.493Z,46.31
2019-01-19T07:43:07.993Z,46.28
2019-01-19T07:44:09.984Z,46.28
2019-01-19T07:45:11.918Z,46.36
2019-01-19T07:46:14.048Z,46.35
2019-01-19T07:47:16.244Z,46.36
2019-01-19T07:48:20.310Z,46.39
2019-01-19T07:49:22.287Z,46.40
2019-01-19T07:50:24.275Z,46.40
2019-01-19T07:51:26.249Z,46.42
2019-01-19T07:52:28.270Z,46.46
2019-01-19T07:53:30.296Z,46.46
2019-01-19T07:54:32.275Z,46.50
2019-01-19T07:55:34.354Z,46.49
2019-01-19T07:56:36.320Z,46.50
2019-01-19T07:57:38.358Z,46.55
2019-01-19T07:58:40.331Z,46.56
2019-01-19T07:59:42.305Z,46.58
2019-01-19T08:00:44.260Z,46.59
2019-01-19T08:01:46.194Z,46.59
2019-01-19T08:02:48.401Z,46.59
2019-01-19T08:03:50.366Z,46.59
2019-01-19T08:04:52.355Z,46.56
2019-01-19T08:05:54.311Z,46.58
2019-01-19T08:06:56.255Z,46.61
2019-01-19T08:07:58.263Z,46.61
2019-01-19T08:09:00.588Z,46.63
2019-01-19T08:10:02.569Z,46.63
2019-01-19T08:11:04.523Z,46.67
2019-01-19T08:12:06.461Z,46.67
2019-01-19T08:13:08.418Z,46.67
2019-01-19T08:14:10.367Z,46.72
2019-01-19T08:15:12.329Z,46.75
2019-01-19T08:16:14.296Z,46.70
2019-01-19T08:17:16.224Z,46.74
2019-01-19T08:18:18.148Z,46.74
2019-01-19T08:19:20.102Z,46.67
2019-01-19T08:20:22.071Z,46.68
2019-01-19T08:21:24.298Z,46.66
2019-01-19T08:22:26.252Z,46.64
2019-01-19T08:23:28.187Z,46.71
2019-01-19T08:24:30.232Z,46.66
2019-01-19T08:25:32.268Z,46.67
2019-01-19T08:26:34.295Z,46.66
2019-01-19T08:27:36.313Z,46.67
2019-01-19T08:28:38.241Z,46.69
2019-01-19T08:29:40.189Z,46.67
2019-01-19T08:30:42.176Z,46.68
2019-01-19T08:31:44.132Z,46.67
2019-01-19T08:32:46.064Z,46.66
2019-01-19T08:33:50.412Z,46.62
2019-01-19T08:34:52.390Z,46.62
2019-01-19T08:35:54.368Z,46.69
2019-01-19T08:36:56.324Z,46.69
2019-01-19T08:37:58.262Z,46.68
2019-01-19T08:39:00.210Z,46.68
2019-01-19T08:40:02.146Z,46.71
2019-01-19T08:41:04.108Z,46.70
2019-01-19T08:42:06.038Z,46.72
2019-01-19T08:43:18.331Z,46.68
2019-01-19T08:44:20.294Z,46.71
2019-01-19T08:45:22.389Z,46.72
2019-01-19T08:46:24.454Z,46.75
2019-01-19T08:47:26.456Z,46.69
2019-01-19T08:48:28.485Z,46.69
2019-01-19T08:49:30.490Z,46.74
2019-01-19T08:50:32.440Z,46.72
2019-01-19T08:51:34.449Z,46.73
2019-01-19T08:52:36.400Z,46.73
2019-01-19T08:53:38.340Z,46.73
2019-01-19T08:54:40.288Z,46.74
2019-01-19T08:55:42.228Z,46.77
2019-01-19T08:56:44.292Z,46.72
2019-01-19T08:57:46.324Z,46.74
2019-01-19T08:58:48.277Z,46.78
2019-01-19T08:59:50.238Z,46.74
2019-01-19T09:00:52.246Z,46.78
2019-01-19T09:01:54.218Z,46.76
2019-01-19T09:02:56.166Z,46.72
2019-01-19T09:03:58.126Z,46.76
2019-01-19T09:05:00.244Z,46.78
2019-01-19T09:06:02.303Z,46.80
2019-01-19T09:07:04.261Z,46.81
2019-01-19T09:08:06.199Z,46.85
2019-01-19T09:09:08.999Z,46.86
2019-01-19T09:10:10.958Z,46.88
2019-01-19T09:11:12.965Z,46.90
2019-01-19T09:12:15.099Z,46.91
2019-01-19T09:13:17.054Z,46.97
2019-01-19T09:14:19.006Z,46.98
2019-01-19T09:15:21.021Z,47.02
2019-01-19T09:16:22.980Z,46.97
2019-01-19T09:17:26.002Z,47.05
2019-01-19T09:18:27.939Z,47.12
2019-01-19T09:19:29.918Z,47.13
2019-01-19T09:20:32.001Z,47.09
2019-01-19T09:21:35.530Z,47.14
2019-01-19T09:22:37.515Z,47.18
2019-01-19T09:23:45.517Z,47.23
2019-01-19T09:24:47.455Z,47.32
2019-01-19T09:25:49.432Z,47.36
2019-01-19T09:26:51.362Z,47.41
2019-01-19T09:27:53.342Z,47.41
2019-01-19T09:28:55.292Z,47.48
2019-01-19T09:29:57.234Z,47.54
2019-01-19T09:31:00.961Z,47.59
2019-01-19T09:32:03.078Z,47.61
2019-01-19T09:33:05.083Z,47.63
2019-01-19T09:34:07.036Z,47.63
2019-01-19T09:35:08.975Z,47.68
2019-01-19T09:36:10.917Z,47.71
2019-01-19T09:37:12.868Z,47.64
2019-01-19T09:38:14.841Z,47.74
2019-01-19T09:39:16.789Z,47.72
2019-01-19T09:40:18.718Z,47.77
2019-01-19T09:41:20.661Z,47.76
2019-01-19T09:42:22.604Z,47.70
2019-01-19T09:43:24.565Z,47.80
2019-01-19T09:44:26.546Z,47.76
2019-01-19T09:45:28.571Z,47.74
2019-01-19T09:46:30.637Z,47.59
2019-01-19T09:47:32.571Z,47.60
2019-01-19T09:48:34.541Z,47.49
2019-01-19T09:49:36.660Z,47.47
2019-01-19T09:50:39.235Z,47.46
2019-01-19T09:51:41.415Z,47.42
2019-01-19T09:52:43.384Z,47.38
2019-01-19T09:53:45.427Z,47.34
2019-01-19T09:54:47.445Z,47.29
2019-01-19T09:55:49.472Z,47.27
2019-01-19T09:56:51.428Z,47.21
2019-01-19T09:57:53.395Z,47.15
2019-01-19T09:58:55.400Z,47.10
2019-01-19T10:00:00.179Z,47.03
2019-01-19T10:01:02.169Z,46.98
2019-01-19T10:02:04.201Z,46.93
2019-01-19T10:03:06.427Z,46.86
2019-01-19T10:04:08.403Z,46.88
2019-01-19T10:05:10.431Z,46.86
2019-01-19T10:06:12.389Z,46.90
2019-01-19T10:07:14.481Z,46.83
2019-01-19T10:08:16.487Z,46.85
2019-01-19T10:09:18.491Z,46.83
2019-01-19T10:10:20.518Z,46.78
2019-01-19T10:11:22.521Z,46.79
2019-01-19T10:12:24.550Z,46.80
2019-01-19T10:13:26.496Z,46.84
2019-01-19T10:14:28.563Z,46.86
2019-01-19T10:15:30.561Z,46.86
2019-01-19T10:16:32.516Z,46.83
2019-01-19T10:17:34.455Z,46.84
2019-01-19T10:18:36.470Z,46.83
2019-01-19T10:19:38.459Z,46.92
2019-01-19T10:20:40.483Z,46.95
2019-01-19T10:21:42.574Z,46.92
2019-01-19T10:22:44.537Z,46.91
2019-01-19T10:23:46.492Z,46.94
2019-01-19T10:24:48.555Z,47.00
2019-01-19T10:25:50.590Z,47.01
2019-01-19T10:26:52.547Z,47.02
2019-01-19T10:27:54.641Z,47.05
2019-01-19T10:28:56.773Z,47.56
2019-01-19T10:29:58.789Z,47.52
2019-01-19T10:31:00.734Z,47.49
2019-01-19T10:32:02.687Z,47.51
2019-01-19T10:33:04.646Z,47.60
2019-01-19T10:34:06.613Z,47.74
2019-01-19T10:35:08.599Z,47.72
2019-01-19T10:36:10.618Z,47.75
2019-01-19T10:37:12.566Z,48.02
2019-01-19T10:38:14.691Z,48.01
2019-01-19T10:39:16.755Z,48.00
2019-01-19T10:40:18.743Z,47.82
2019-01-19T10:41:20.683Z,48.32
2019-01-19T10:42:22.636Z,48.37
2019-01-19T10:43:24.572Z,48.29
2019-01-19T10:44:26.581Z,48.61
2019-01-19T10:45:28.572Z,48.64
2019-01-19T10:46:30.536Z,48.76
2019-01-19T10:47:32.481Z,48.77
2019-01-19T10:48:34.432Z,48.69
2019-01-19T10:49:36.388Z,48.70
2019-01-19T10:50:38.368Z,48.71
2019-01-19T10:51:40.331Z,48.72
2019-01-19T10:52:42.272Z,48.61
2019-01-19T10:53:44.238Z,48.57
2019-01-19T10:54:46.253Z,48.60
2019-01-19T10:55:48.604Z,48.53
2019-01-19T10:56:50.564Z,48.44
2019-01-19T10:57:52.562Z,48.46
2019-01-19T10:58:54.978Z,48.32
2019-01-19T10:59:56.926Z,48.32
2019-01-19T11:00:58.906Z,48.37
2019-01-19T11:02:02.510Z,48.28
2019-01-19T11:03:05.253Z,48.33
2019-01-19T11:04:07.283Z,48.39
2019-01-19T11:05:09.710Z,48.33
2019-01-19T11:06:11.701Z,48.30
2019-01-19T11:07:13.696Z,48.32
2019-01-19T11:08:15.646Z,48.37
2019-01-19T11:09:17.572Z,48.37
2019-01-19T11:10:19.598Z,48.30
2019-01-19T11:11:24.128Z,48.30
2019-01-19T11:12:26.042Z,48.31
2019-01-19T11:13:29.549Z,48.33
2019-01-19T11:14:31.495Z,48.35
2019-01-19T11:15:33.428Z,48.39
2019-01-19T11:16:35.384Z,48.40
2019-01-19T11:17:37.334Z,48.41
2019-01-19T11:18:39.298Z,48.41
2019-01-19T11:19:41.243Z,48.44
2019-01-19T11:20:43.397Z,48.42
2019-01-19T11:21:45.387Z,48.43
2019-01-19T11:22:47.340Z,48.43
2019-01-19T11:23:49.279Z,48.44
2019-01-19T11:24:51.232Z,48.39
2019-01-19T11:25:53.256Z,48.40
2019-01-19T11:26:55.308Z,48.30
2019-01-19T11:27:57.244Z,48.25
2019-01-19T11:29:00.628Z,48.14
2019-01-19T11:30:02.714Z,47.94
2019-01-19T11:31:04.681Z,47.75
2019-01-19T11:32:06.700Z,47.58
2019-01-19T11:33:08.646Z,47.45
2019-01-19T11:34:10.587Z,47.32
2019-01-19T11:35:12.554Z,47.08
2019-01-19T11:36:14.500Z,47.13
2019-01-19T11:37:16.479Z,47.15
2019-01-19T11:38:20.185Z,47.08
2019-01-19T11:39:22.147Z,46.94
2019-01-19T11:40:24.097Z,46.86
2019-01-19T11:41:26.036Z,46.85
2019-01-19T11:42:28.095Z,46.88
2019-01-19T11:43:30.042Z,46.87
2019-01-19T11:44:31.999Z,46.87
2019-01-19T11:45:34.034Z,46.85
2019-01-19T11:46:35.990Z,46.83
2019-01-19T11:47:38.005Z,46.86
2019-01-19T11:48:39.952Z,46.91
2019-01-19T11:49:41.901Z,46.89
2019-01-19T11:50:43.846Z,46.92
2019-01-19T11:51:45.784Z,46.94
2019-01-19T11:52:47.789Z,46.98
2019-01-19T11:53:49.742Z,47.02
2019-01-19T11:54:51.875Z,47.06
2019-01-19T11:55:53.918Z,47.13
2019-01-19T11:56:55.869Z,47.17
2019-01-19T11:57:57.849Z,47.25
2019-01-19T11:58:59.797Z,47.29
2019-01-19T12:00:01.742Z,47.31
2019-01-19T12:01:03.691Z,47.33
2019-01-19T12:02:05.623Z,47.36
2019-01-19T12:03:07.618Z,47.42
2019-01-19T12:04:09.562Z,47.46
2019-01-19T12:05:11.503Z,47.46
2019-01-19T12:06:13.440Z,47.47
2019-01-19T12:07:15.388Z,47.49
2019-01-19T12:08:19.703Z,47.51
2019-01-19T12:09:21.061Z,47.55
2019-01-19T12:10:23.172Z,47.61
2019-01-19T12:11:25.499Z,47.61
2019-01-19T12:12:27.428Z,47.64
2019-01-19T12:13:29.417Z,47.68
2019-01-19T12:14:31.443Z,47.74
2019-01-19T12:15:33.479Z,47.74
2019-01-19T12:16:35.431Z,47.72
2019-01-19T12:17:37.436Z,47.74
2019-01-19T12:18:39.422Z,47.77
2019-01-19T12:19:41.425Z,47.74
2019-01-19T12:20:43.387Z,47.72
2019-01-19T12:21:45.408Z,47.55
2019-01-19T12:22:47.421Z,47.77
2019-01-19T12:23:49.388Z,47.75
2019-01-19T12:24:51.387Z,47.77
2019-01-19T12:25:53.363Z,47.94
2019-01-19T12:26:55.311Z,47.91
2019-01-19T12:27:57.257Z,47.94
2019-01-19T12:28:59.285Z,47.99
2019-01-19T12:30:01.309Z,47.99
2019-01-19T12:31:03.496Z,47.95
2019-01-19T12:32:05.437Z,47.96
2019-01-19T12:33:07.414Z,48.01
2019-01-19T12:34:09.469Z,47.98
2019-01-19T12:35:11.452Z,47.98
2019-01-19T12:36:14.785Z,47.95
2019-01-19T12:37:16.823Z,47.99
2019-01-19T12:38:18.783Z,47.94
2019-01-19T12:39:20.763Z,48.04
2019-01-19T12:40:22.703Z,48.03
2019-01-19T12:41:24.656Z,48.04
2019-01-19T12:42:26.648Z,48.07
2019-01-19T12:43:28.682Z,48.06
2019-01-19T12:44:30.660Z,48.07
2019-01-19T12:45:32.608Z,48.10
2019-01-19T12:46:34.614Z,48.07
2019-01-19T12:47:36.665Z,48.08
2019-01-19T12:48:38.696Z,48.06
2019-01-19T12:49:40.678Z,47.98
2019-01-19T12:50:42.644Z,47.83
2019-01-19T12:51:44.983Z,47.60
2019-01-19T12:52:46.984Z,47.37
2019-01-19T12:53:48.940Z,47.23
2019-01-19T12:54:51.031Z,47.12
2019-01-19T12:55:52.984Z,47.02
2019-01-19T12:56:54.938Z,46.95
2019-01-19T12:57:56.892Z,47.02
2019-01-19T12:58:58.846Z,46.83
2019-01-19T13:00:00.908Z,46.75
2019-01-19T13:01:02.886Z,46.70
2019-01-19T13:02:05.063Z,46.66
2019-01-19T13:03:07.032Z,46.65
2019-01-19T13:04:09.037Z,46.72
2019-01-19T13:05:10.983Z,46.61
2019-01-19T13:06:12.935Z,46.63
2019-01-19T13:07:16.825Z,46.60
2019-01-19T13:08:18.816Z,46.60
2019-01-19T13:09:20.772Z,46.63
2019-01-19T13:10:22.741Z,46.58
2019-01-19T13:11:24.669Z,46.53
2019-01-19T13:12:26.661Z,46.53
2019-01-19T13:13:28.614Z,46.58
2019-01-19T13:14:30.565Z,46.62
2019-01-19T13:15:32.534Z,46.64
2019-01-19T13:16:34.478Z,46.63
2019-01-19T13:17:36.435Z,46.69
2019-01-19T13:18:38.385Z,46.76
2019-01-19T13:19:41.921Z,46.78
2019-01-19T13:20:43.932Z,46.86